Time;durP1;ratioP1;P1;durP2;ratioP2;P2;SDS_P1;SDS_P2;PMS_P1;PMS_P2;Temp;Humidity;BMP_temperature;BMP_pressure;BME280_temperature;BME280_humidity;BME280_pressure;Samples;Min_cycle;Max_cycle;Signal;HPM_P1;HPM_P2
2023/08/26 09:05:02;;;;;;;;;;;;;;;;;;;;;
2023/08/26 09:49:36;;;;;;;1.00;1.00;;;15.90;99.90;;;;;;1910860;74;25344;-93
2023/08/26 10:19:06;;;;;;;2.00;1.20;;;15.70;99.90;;;;;;1899132;73;25913;-91
2023/08/26 10:33:30;;;;;;;1.67;1.17;;;15.80;99.90;;;;;;1888695;75;25205;-92
2023/08/26 12:42:33;;;;;;;5.53;4.10;;;16.10;99.90;;;;;;1814802;75;25383;-90
2023/08/26 12:45:22;;;;;;;5.47;4.10;;;16.10;99.90;;;;;;1895920;75;25232;-90
2023/08/26 12:48:10;;;;;;;5.60;4.23;;;16.10;99.90;;;;;;1882766;74;25237;-90
2023/08/26 12:51:01;;;;;;;4.83;4.10;;;16.20;99.90;;;;;;1899727;75;25777;-90
2023/08/26 12:53:51;;;;;;;4.30;3.90;;;16.20;99.90;;;;;;1885213;73;25272;-90
2023/08/26 13:01:59;;;;;;;4.67;4.17;;;16.20;99.90;;;;;;1988425;71;26424;-90
2023/08/26 13:04:47;;;;;;;4.37;3.97;;;16.30;99.90;;;;;;2030046;70;25597;-90
2023/08/26 13:07:36;;;;;;;5.23;3.90;;;16.30;99.90;;;;;;2021399;70;25291;-90
2023/08/26 13:10:25;;;;;;;6.93;3.50;;;16.20;99.90;;;;;;2025249;70;25212;-90
2023/08/26 13:13:14;;;;;;;5.30;4.23;;;16.20;99.90;;;;;;2020228;70;25215;-90
2023/08/26 13:16:02;;;;;;;7.50;4.50;;;16.20;99.90;;;;;;2020486;70;25597;-90
2023/08/26 13:18:54;;;;;;;6.60;4.37;;;16.20;99.90;;;;;;2028915;69;25256;-90
2023/08/26 13:21:43;;;;;;;8.10;4.63;;;16.10;99.90;;;;;;2026894;70;25206;-90
2023/08/26 13:24:34;;;;;;;6.43;4.47;;;16.10;99.90;;;;;;2009150;70;25682;-91
2023/08/26 13:27:24;;;;;;;5.93;4.30;;;16.10;99.90;;;;;;2026429;70;25199;-90
2023/08/26 13:30:14;;;;;;;9.77;4.40;;;16.10;99.90;;;;;;2026498;70;25597;-90
2023/08/26 13:33:02;;;;;;;6.70;5.17;;;16.10;99.90;;;;;;2016624;70;25191;-90
2023/08/26 13:35:51;;;;;;;10.33;4.87;;;16.10;99.90;;;;;;2026515;70;25299;-90
2023/08/26 13:38:40;;;;;;;5.17;4.67;;;16.30;99.90;;;;;;2020531;70;25272;-90
2023/08/26 13:41:28;;;;;;;6.37;4.30;;;16.30;99.90;;;;;;1991495;71;26386;-90
2023/08/26 13:44:17;;;;;;;8.67;4.20;;;16.30;99.90;;;;;;2027723;70;25217;-90
2023/08/26 13:49:46;;;;;;;5.00;3.70;;;16.30;99.90;;;;;;1906227;74;27004;-90
2023/08/26 13:52:34;;;;;;;6.00;3.83;;;16.20;99.90;;;;;;1868469;76;25253;-90
2023/08/26 13:55:23;;;;;;;4.30;3.83;;;16.20;99.90;;;;;;1875076;75;25310;-90
2023/08/26 13:58:14;;;;;;;5.27;3.67;;;16.30;99.90;;;;;;1868457;76;25594;-90
2023/08/26 14:01:03;;;;;;;4.20;3.77;;;16.30;99.90;;;;;;1864373;76;25239;-90
2023/08/26 14:03:51;;;;;;;5.37;3.47;;;16.40;99.90;;;;;;1870232;76;25252;-90
2023/08/26 14:06:42;;;;;;;6.13;3.47;;;16.30;99.90;;;;;;1876893;76;25230;-91
2023/08/26 14:09:32;;;;;;;4.33;3.73;;;16.40;99.90;;;;;;1868625;75;25245;-90
2023/08/26 14:12:22;;;;;;;3.60;3.30;;;16.40;99.90;;;;;;1864888;76;25157;-91
2023/08/26 14:18:04;;;;;;;5.07;3.80;;;16.40;99.90;;;;;;1958011;72;27467;-90
2023/08/26 14:20:53;;;;;;;4.43;3.67;;;16.30;99.90;;;;;;1947181;72;25261;-90
2023/08/26 14:23:42;;;;;;;6.67;3.50;;;16.30;99.90;;;;;;1961899;72;25522;-90
2023/08/26 14:39:42;;;;;;;4.53;4.10;;;16.30;99.90;;;;;;1912419;73;27095;-89
2023/08/26 14:45:23;;;;;;;5.93;4.17;;;16.40;99.90;;;;;;1950949;72;27096;-90
2023/08/26 14:48:13;;;;;;;7.10;4.10;;;16.30;99.90;;;;;;1927575;73;25210;-90
2023/08/26 14:51:05;;;;;;;6.27;4.77;;;16.30;99.90;;;;;;1916777;73;25227;-90
2023/08/26 14:53:55;;;;;;;5.43;4.37;;;16.30;99.90;;;;;;1923154;73;25249;-90
2023/08/26 14:56:44;;;;;;;6.33;4.70;;;16.30;99.90;;;;;;1923672;73;25269;-90
2023/08/26 14:59:34;;;;;;;7.83;4.30;;;16.40;99.90;;;;;;1924994;73;25158;-90
2023/08/26 15:02:22;;;;;;;5.00;3.60;;;16.30;99.90;;;;;;1917654;73;25226;-90
2023/08/26 15:05:11;;;;;;;5.90;4.33;;;16.30;99.90;;;;;;1923444;73;25245;-90
2023/08/26 15:07:59;;;;;;;4.70;4.20;;;16.30;99.90;;;;;;1917262;73;25244;-90
2023/08/26 15:10:48;;;;;;;8.40;4.37;;;16.30;99.90;;;;;;1925808;73;25263;-90
2023/08/26 15:26:52;;;;;;;8.20;3.60;;;16.20;99.90;;;;;;1919430;74;27086;-90
2023/08/26 15:29:41;;;;;;;4.33;3.40;;;16.40;99.90;;;;;;1947371;72;25556;-90
2023/08/26 16:01:42;;;;;;;4.53;3.80;;;16.10;99.90;;;;;;1951613;72;27032;-91
2023/08/26 16:04:31;;;;;;;5.00;3.23;;;16.10;99.90;;;;;;1949998;72;25167;-90
2023/08/26 16:07:19;;;;;;;6.40;2.77;;;16.10;99.90;;;;;;1916203;73;25237;-89
2023/08/26 16:10:10;;;;;;;9.33;3.63;;;16.10;99.90;;;;;;1927132;72;25319;-90
2023/08/26 16:13:01;;;;;;;4.50;3.53;;;16.00;99.90;;;;;;1917960;73;25213;-91
2023/08/26 16:15:54;;;;;;;6.17;3.97;;;16.00;99.90;;;;;;1927470;72;25658;-91
2023/08/26 16:18:47;;;;;;;7.23;4.23;;;15.90;99.90;;;;;;1925193;72;25667;-91
2023/08/26 16:21:38;;;;;;;5.50;4.03;;;15.90;99.90;;;;;;1918838;72;25267;-91
2023/08/26 16:24:27;;;;;;;4.47;3.60;;;15.90;99.90;;;;;;1936522;73;25202;-90
2023/08/26 16:27:18;;;;;;;8.17;4.40;;;15.90;99.90;;;;;;1928343;73;25221;-90
2023/08/26 16:30:28;;;;;;;6.90;4.30;;;15.90;99.90;;;;;;1923737;72;25294;-91
2023/08/26 16:33:20;;;;;;;8.27;4.30;;;15.90;99.90;;;;;;1884128;75;25271;-90
2023/08/26 16:36:09;;;;;;;10.30;4.60;;;15.90;99.90;;;;;;1889383;74;25323;-90
2023/08/26 16:38:58;;;;;;;9.80;4.97;;;15.80;99.90;;;;;;1888695;74;25357;-90
2023/08/26 16:41:48;;;;;;;5.40;4.90;;;15.80;99.90;;;;;;1876231;74;25212;-90
2023/08/26 16:45:06;;;;;;;7.23;4.90;;;15.80;99.90;;;;;;1878831;75;25299;-91
2023/08/26 16:47:55;;;;;;;6.33;4.23;;;15.70;99.90;;;;;;1880355;74;25258;-90
2023/08/26 16:50:44;;;;;;;7.27;4.77;;;15.70;99.90;;;;;;1878338;75;25217;-90
2023/08/26 16:56:25;;;;;;;6.40;5.30;;;15.70;99.90;;;;;;1956017;72;27498;-90
2023/08/26 16:59:35;;;;;;;6.90;5.47;;;15.60;99.90;;;;;;1929888;73;26852;-90
2023/08/26 17:02:28;;;;;;;9.90;5.73;;;15.60;99.90;;;;;;1894459;75;25235;-91
2023/08/26 17:05:40;;;;;;;7.27;5.73;;;15.60;99.90;;;;;;1861306;73;25732;-90
2023/08/26 18:03:30;;;;;;;3.90;2.33;;;15.80;99.90;;;;;;1943266;72;26780;-89
2023/08/26 18:30:48;;;;;;;3.90;2.90;;;15.60;99.90;;;;;;1949622;72;27663;-91
2023/08/26 18:34:00;;;;;;;1.73;1.63;;;15.60;99.90;;;;;;1922821;73;25238;-90
2023/08/26 18:37:06;;;;;;;3.70;2.73;;;15.70;99.90;;;;;;1920241;73;25245;-90
2023/08/26 18:39:56;;;;;;;2.27;2.07;;;15.60;99.90;;;;;;1922913;73;25223;-90
2023/08/26 18:58:21;;;;;;;5.53;1.60;;;15.60;99.90;;;;;;1923906;73;26852;-90
2023/08/26 19:01:11;;;;;;;3.23;1.27;;;15.70;99.90;;;;;;1905014;74;25853;-90
2023/08/26 20:28:18;;;;;;;0.40;0.40;;;15.30;99.90;;;;;;1893376;74;25325;-89
2023/08/26 20:31:49;;;;;;;2.53;0.37;;;15.20;99.90;;;;;;1873448;75;25346;-89
2023/08/26 20:50:08;;;;;;;0.40;0.40;;;15.50;99.90;;;;;;1995011;70;25746;-91
2023/08/26 20:53:20;;;;;;;0.50;0.40;;;15.60;99.90;;;;;;1995059;70;25245;-91
2023/08/26 20:59:54;;;;;;;2.57;0.23;;;15.40;99.90;;;;;;1944840;71;27208;-89
2023/08/26 21:03:24;;;;;;;0.97;0.20;;;15.40;99.90;;;;;;1939753;73;25144;-90
2023/08/26 21:06:14;;;;;;;0.30;0.30;;;15.40;99.90;;;;;;1912104;72;25194;-89
2023/08/26 21:56:54;;;;;;;0.60;0.60;;;15.40;99.90;;;;;;1954396;72;27654;-90
2023/08/26 21:59:43;;;;;;;0.97;0.80;;;15.40;99.90;;;;;;1916427;73;25237;-90
2023/08/26 22:02:31;;;;;;;1.07;0.63;;;15.30;99.90;;;;;;1919606;73;25716;-90
2023/08/26 22:05:21;;;;;;;0.73;0.70;;;15.20;99.90;;;;;;1916307;73;25254;-90
2023/08/26 22:08:10;;;;;;;0.63;0.63;;;15.20;99.90;;;;;;1916328;73;25211;-90
2023/08/26 22:11:00;;;;;;;0.50;0.50;;;15.20;99.90;;;;;;1921065;73;25267;-90
2023/08/26 22:13:50;;;;;;;1.00;0.60;;;15.10;99.90;;;;;;1927906;73;25362;-90
2023/08/26 22:16:42;;;;;;;0.60;0.60;;;15.10;99.90;;;;;;1916441;73;25218;-91
2023/08/26 22:19:32;;;;;;;0.50;0.50;;;15.10;99.90;;;;;;1900526;74;25266;-91
2023/08/26 22:38:55;;;;;;;1.10;1.00;;;14.90;99.90;;;;;;1910768;74;29517;-91
2023/08/26 22:55:45;;;;;;;1.20;1.10;;;15.00;99.90;;;;;;1874866;74;27193;-90
2023/08/26 23:01:30;;;;;;;1.63;1.30;;;15.00;99.90;;;;;;1945557;72;27148;-89
2023/08/26 23:04:25;;;;;;;1.40;1.30;;;15.00;99.90;;;;;;1921456;73;25226;-92
2023/08/26 23:07:13;;;;;;;1.70;1.50;;;15.00;99.90;;;;;;1928305;73;25247;-92
2023/08/26 23:10:04;;;;;;;1.50;1.30;;;14.90;99.90;;;;;;1927768;73;25772;-92
2023/08/26 23:12:54;;;;;;;1.67;1.30;;;14.90;99.90;;;;;;1926266;73;25697;-92
2023/08/26 23:22:00;;;;;;;3.05;1.67;;;15.00;99.90;;;;;;1992064;71;27868;-90
2023/08/26 23:28:05;;;;;;;1.43;1.30;;;15.00;99.90;;;;;;1960077;72;28690;-90
2023/08/26 23:30:53;;;;;;;1.37;1.13;;;15.00;99.90;;;;;;1987408;70;25667;-90
2023/08/26 23:33:42;;;;;;;2.07;1.20;;;15.00;99.90;;;;;;1979556;71;25198;-90
2023/08/26 23:36:31;;;;;;;1.70;1.33;;;14.90;99.90;;;;;;1990235;71;25767;-90
2023/08/26 23:39:19;;;;;;;3.83;1.47;;;15.00;99.90;;;;;;1985137;71;25206;-90
2023/08/26 23:42:08;;;;;;;4.30;1.40;;;15.00;99.90;;;;;;1991218;69;25284;-91
2023/08/26 23:44:57;;;;;;;1.40;1.30;;;15.10;99.90;;;;;;2028824;69;25456;-90
2023/08/26 23:47:47;;;;;;;3.97;1.43;;;15.10;99.90;;;;;;2022226;69;25282;-90
2023/08/26 23:53:25;;;;;;;2.97;1.50;;;15.20;99.90;;;;;;1942019;72;26898;-91
2023/08/26 23:56:14;;;;;;;2.10;1.43;;;15.30;99.90;;;;;;1933623;72;25284;-90
2023/08/26 23:59:03;;;;;;;2.63;1.83;;;15.30;99.90;;;;;;1925274;72;25176;-90
